createdAt,value
2023-05-24T04:12:41.406Z,8.85
2023-05-24T04:15:44.135Z,10.15
2023-05-24T04:18:46.959Z,9.82
2023-05-24T04:21:50.523Z,8.63
2023-05-24T04:24:52.860Z,9.25
2023-05-24T04:27:56.159Z,8.95
2023-05-24T04:30:59.731Z,9.10
2023-05-24T04:34:02.882Z,9.20
2023-05-24T04:37:05.380Z,9.63
2023-05-24T04:40:08.592Z,9.07
2023-05-24T04:43:11.801Z,9.20
2023-05-24T04:46:14.273Z,9.52
2023-05-24T04:49:16.828Z,8.70
2023-05-24T04:52:19.323Z,8.45
2023-05-24T04:55:21.526Z,8.43
2023-05-24T04:58:23.947Z,9.05
2023-05-24T05:01:26.197Z,9.80
2023-05-24T05:04:28.697Z,9.55
2023-05-24T05:07:30.816Z,10.00
2023-05-24T05:10:33.304Z,10.35
2023-05-24T05:13:35.602Z,10.52
2023-05-24T05:16:39.117Z,10.75
2023-05-24T05:19:41.472Z,11.18
2023-05-24T05:22:47.829Z,12.10
2023-05-24T05:25:49.969Z,12.10
2023-05-24T05:28:52.785Z,12.30
2023-05-24T05:31:55.780Z,12.63
2023-05-24T05:34:58.312Z,12.60
2023-05-24T05:38:03.164Z,12.07
2023-05-24T05:41:05.665Z,13.27
2023-05-24T05:44:07.876Z,12.30
2023-05-24T05:47:10.374Z,12.50
2023-05-24T05:50:12.583Z,12.45
2023-05-24T05:53:16.305Z,11.80
2023-05-24T05:56:18.583Z,11.55
2023-05-24T05:59:21.080Z,10.30
2023-05-24T06:02:23.300Z,10.18
2023-05-24T06:05:25.982Z,10.70
2023-05-24T06:08:30.856Z,10.55
2023-05-24T06:11:33.547Z,10.30
2023-05-24T06:14:38.359Z,10.32
2023-05-24T06:17:42.386Z,10.00
2023-05-24T06:20:45.031Z,9.60
2023-05-24T06:23:47.767Z,11.30
2023-05-24T06:26:51.406Z,10.68
2023-05-24T06:29:53.891Z,10.98
2023-05-24T06:32:56.353Z,10.30
2023-05-24T06:35:58.847Z,10.27
2023-05-24T06:39:01.882Z,10.75
2023-05-24T06:42:04.661Z,10.75
2023-05-24T06:45:08.449Z,9.05
2023-05-24T06:48:11.441Z,10.18
2023-05-24T06:51:13.860Z,10.82
2023-05-24T06:54:16.418Z,10.60
2023-05-24T06:57:18.719Z,10.88
2023-05-24T07:00:21.540Z,9.95
2023-05-24T07:03:24.054Z,9.13
2023-05-24T07:06:27.043Z,9.07
2023-05-24T07:09:29.178Z,10.10
2023-05-24T07:12:32.544Z,9.18
2023-05-24T07:15:34.821Z,9.68
2023-05-24T07:18:37.538Z,9.27
2023-05-24T07:21:39.781Z,9.55
2023-05-24T07:24:42.287Z,9.38
2023-05-24T07:27:44.526Z,10.27
2023-05-24T07:30:47.270Z,9.88
2023-05-24T07:33:49.508Z,9.45
2023-05-24T07:36:52.459Z,10.38
2023-05-24T07:39:54.639Z,9.60
2023-05-24T07:42:57.062Z,9.40
2023-05-24T07:45:59.305Z,9.23
2023-05-24T07:49:01.754Z,9.70
2023-05-24T07:52:04.606Z,9.30
2023-05-24T07:55:07.865Z,9.13
2023-05-24T07:58:11.214Z,10.15
2023-05-24T08:01:14.464Z,11.02
2023-05-24T08:04:17.352Z,10.40
2023-05-24T08:07:21.691Z,10.80
2023-05-24T08:10:25.246Z,10.73
2023-05-24T08:13:27.462Z,11.15
2023-05-24T08:16:32.347Z,11.15
2023-05-24T08:19:36.915Z,10.82
2023-05-24T08:22:40.267Z,10.80
2023-05-24T08:25:42.829Z,11.75
2023-05-24T08:28:45.459Z,11.02
2023-05-24T08:31:47.736Z,10.82
2023-05-24T08:34:50.822Z,11.35
2023-05-24T08:37:54.354Z,10.50
2023-05-24T08:40:57.207Z,9.75
2023-05-24T08:44:02.215Z,9.63
2023-05-24T08:47:07.434Z,7.95
2023-05-24T08:50:10.777Z,8.97
2023-05-24T08:53:14.569Z,8.65
2023-05-24T08:56:18.222Z,8.65
2023-05-24T09:02:26.921Z,8.35
2023-05-24T09:05:30.748Z,7.70
2023-05-24T09:08:35.471Z,8.25
2023-05-24T09:11:41.742Z,8.45
2023-05-24T09:14:47.205Z,7.47
2023-05-24T09:17:50.744Z,7.25
2023-05-24T09:20:53.952Z,7.35
2023-05-24T09:23:57.472Z,7.25
2023-05-24T09:27:07.096Z,6.93
2023-05-24T09:30:11.218Z,7.18
2023-05-24T09:33:14.425Z,7.15
2023-05-24T09:36:18.725Z,7.57
2023-05-24T09:39:21.432Z,7.97
2023-05-24T09:42:27.733Z,7.18
2023-05-24T09:45:30.227Z,7.35
2023-05-24T09:48:32.798Z,6.95
2023-05-24T09:51:40.757Z,6.37
2023-05-24T09:54:43.189Z,7.07
2023-05-24T09:57:53.825Z,6.72
2023-05-24T10:01:05.286Z,6.40
2023-05-24T10:04:10.790Z,6.37
2023-05-24T10:07:14.045Z,5.90
2023-05-24T10:10:16.923Z,6.05
2023-05-24T10:13:22.655Z,6.32
2023-05-24T10:16:25.765Z,6.40
2023-05-24T10:19:28.127Z,6.22
2023-05-24T10:22:32.113Z,6.37
2023-05-24T10:25:35.449Z,6.55
2023-05-24T10:29:05.677Z,6.75
2023-05-24T10:32:09.230Z,6.45
2023-05-24T10:35:15.313Z,5.90
2023-05-24T10:38:20.793Z,6.78
2023-05-24T10:41:26.312Z,6.45
2023-05-24T10:44:33.275Z,6.47
2023-05-24T10:47:39.056Z,6.22
2023-05-24T10:53:45.039Z,5.97
2023-05-24T10:56:49.491Z,6.07
2023-05-24T10:59:52.249Z,5.70
2023-05-24T11:03:09.117Z,6.10
2023-05-24T11:06:11.791Z,6.10
2023-05-24T11:09:17.689Z,6.62
2023-05-24T11:12:23.759Z,5.90
2023-05-24T11:15:26.547Z,5.12
2023-05-24T11:18:29.072Z,6.20
2023-05-24T11:21:31.699Z,6.28
2023-05-24T11:24:34.939Z,6.05
2023-05-24T11:27:44.355Z,5.87
2023-05-24T11:30:48.030Z,6.05
2023-05-24T11:33:50.203Z,5.35
2023-05-24T11:36:53.156Z,5.90
2023-05-24T11:39:56.735Z,6.10
2023-05-24T11:42:59.304Z,5.68
2023-05-24T11:46:02.067Z,6.00
2023-05-24T11:49:05.833Z,6.37
2023-05-24T11:52:08.643Z,5.85
2023-05-24T11:55:16.307Z,5.72
2023-05-24T11:58:27.433Z,5.35
2023-05-24T12:01:30.080Z,5.85
2023-05-24T12:04:37.682Z,5.50
2023-05-24T12:07:40.858Z,6.30
2023-05-24T12:10:44.229Z,5.90
2023-05-24T12:13:46.826Z,5.40
2023-05-24T12:16:49.991Z,5.32
2023-05-24T12:19:52.852Z,5.68
2023-05-24T12:22:56.074Z,5.50
2023-05-24T12:26:02.040Z,5.72
2023-05-24T12:29:05.114Z,5.37
2023-05-24T12:32:12.299Z,5.10
2023-05-24T12:35:18.466Z,4.90
2023-05-24T12:38:25.483Z,4.75
2023-05-24T12:41:30.760Z,4.90
2023-05-24T12:44:37.528Z,5.40
2023-05-24T12:47:40.098Z,4.85
2023-05-24T12:50:42.722Z,5.10
2023-05-24T12:53:45.370Z,5.40
2023-05-24T12:56:47.970Z,5.40
2023-05-24T12:59:50.589Z,4.70
2023-05-24T13:02:56.178Z,5.43
2023-05-24T13:05:59.906Z,4.95
2023-05-24T13:09:02.279Z,5.32
2023-05-24T13:12:05.905Z,5.72
2023-05-24T13:15:08.990Z,5.40
2023-05-24T13:18:11.506Z,5.10
2023-05-24T13:21:13.750Z,4.35
2023-05-24T13:24:16.670Z,4.37
2023-05-24T13:27:18.957Z,5.12
2023-05-24T13:30:27.551Z,4.82
2023-05-24T13:33:36.619Z,5.87
2023-05-24T13:36:39.535Z,5.68
2023-05-24T13:39:42.024Z,4.93
2023-05-24T13:42:44.485Z,4.85
2023-05-24T13:45:46.812Z,4.90
2023-05-24T13:48:49.272Z,4.78
2023-05-24T13:51:53.424Z,5.28
2023-05-24T13:54:57.719Z,4.87
2023-05-24T13:58:01.562Z,4.90
2023-05-24T14:01:04.370Z,4.97
2023-05-24T14:04:06.908Z,4.57
2023-05-24T14:07:09.487Z,4.47
2023-05-24T14:10:12.710Z,4.10
2023-05-24T14:13:32.156Z,4.60
2023-05-24T14:16:37.447Z,4.18
2023-05-24T14:19:39.753Z,4.45
2023-05-24T14:22:42.239Z,4.43
2023-05-24T14:25:46.784Z,4.70
2023-05-24T14:28:49.331Z,4.90
2023-05-24T14:31:51.591Z,4.30
2023-05-24T14:34:54.761Z,4.20
2023-05-24T14:37:57.181Z,4.70
2023-05-24T14:41:00.458Z,4.75
2023-05-24T14:44:02.853Z,4.72
2023-05-24T14:47:05.651Z,4.15
2023-05-24T14:50:08.226Z,4.18
2023-05-24T14:53:14.051Z,4.75
2023-05-24T14:56:16.867Z,4.53
2023-05-24T14:59:19.297Z,4.57
2023-05-24T15:02:21.722Z,4.45
2023-05-24T15:05:24.166Z,4.47
2023-05-24T15:08:26.389Z,4.07
2023-05-24T15:11:29.567Z,4.90
2023-05-24T15:14:31.794Z,3.90
2023-05-24T15:17:34.310Z,4.65
